Gorgan Airport


Codes: OING/GBT
Name: Gorgan Airport
City: Gorgan
Country: Iran
Elevation: -24 ft.
Wikipedia:

Photos at Gorgan Airport


   Photos courtesy of SpottingLog. You can add your own sightings and photos by signing up for a free trial today.



No photos found.

Weather at Gorgan Airport


Time (UTC)DescriptionTempratureWindCloud coverageVisibilityPressureHumidity
13-Jun-2024 03:00Scattered Clouds24°C4 mph, W43%10000m1011hPa80%
13-Jun-2024 06:00Scattered Clouds28°C7 mph, NW30%10000m1012hPa60%
13-Jun-2024 09:00Clear Sky34°C11 mph, NW2%10000m1011hPa39%
13-Jun-2024 12:00Clear Sky33°C16 mph, W0%10000m1012hPa38%
13-Jun-2024 15:00Light Rain29°C2 mph, W100%10000m1012hPa50%
13-Jun-2024 18:00Overcast Clouds27°C2 mph, W100%10000m1012hPa55%
13-Jun-2024 21:00Overcast Clouds25°C2 mph, W92%10000m1012hPa66%
14-Jun-2024 00:00Broken Clouds24°C4 mph, W72%10000m1012hPa73%
14-Jun-2024 03:00Broken Clouds26°C2 mph, E79%10000m1012hPa61%
14-Jun-2024 06:00Overcast Clouds30°C7 mph, NE89%10000m1012hPa46%
14-Jun-2024 09:00Light Rain32°C2 mph, NE100%10000m1011hPa39%
14-Jun-2024 12:00Overcast Clouds33°C7 mph, NW96%10000m1011hPa37%
14-Jun-2024 15:00Light Rain29°C4 mph, SW100%10000m1012hPa50%
14-Jun-2024 18:00Overcast Clouds27°C4 mph, W100%10000m1012hPa59%
14-Jun-2024 21:00Light Rain25°C4 mph, SW94%7791m1012hPa70%
15-Jun-2024 00:00Light Rain24°C9 mph, W98%10000m1012hPa75%
15-Jun-2024 03:00Light Rain26°C2 mph, NE83%10000m1012hPa64%
15-Jun-2024 06:00Overcast Clouds29°C4 mph, N91%10000m1011hPa52%
15-Jun-2024 09:00Light Rain33°C9 mph, N89%10000m1010hPa40%
15-Jun-2024 12:00Light Rain35°C9 mph, N88%10000m1009hPa34%
15-Jun-2024 15:00Light Rain32°C4 mph, N100%10000m1009hPa41%
15-Jun-2024 18:00Overcast Clouds28°C2 mph, W99%10000m1010hPa53%
15-Jun-2024 21:00Broken Clouds26°C2 mph, W78%10000m1009hPa64%
16-Jun-2024 00:00Broken Clouds25°C2 mph, W62%10000m1008hPa62%
16-Jun-2024 03:00Clear Sky28°C2 mph, NW5%10000m1010hPa52%
16-Jun-2024 06:00Clear Sky33°C4 mph, NW2%10000m1009hPa40%
16-Jun-2024 09:00Clear Sky37°C7 mph, NW0%10000m1008hPa28%
16-Jun-2024 12:00Clear Sky39°C9 mph, NW0%10000m1007hPa25%
16-Jun-2024 15:00Clear Sky32°C9 mph, W0%10000m1008hPa43%
16-Jun-2024 18:00Clear Sky29°C4 mph, W2%10000m1009hPa57%
16-Jun-2024 21:00Clear Sky27°C4 mph, SW2%10000m1010hPa63%
17-Jun-2024 00:00Scattered Clouds27°C2 mph, SW33%10000m1010hPa60%
17-Jun-2024 03:00Clear Sky29°C4 mph, W0%10000m1011hPa51%
17-Jun-2024 06:00Few Clouds33°C7 mph, NW18%10000m1011hPa37%
17-Jun-2024 09:00Few Clouds37°C7 mph, NW23%10000m1011hPa26%
17-Jun-2024 12:00Few Clouds36°C13 mph, W20%10000m1010hPa28%
17-Jun-2024 15:00Scattered Clouds32°C4 mph, W31%10000m1011hPa38%
17-Jun-2024 18:00Few Clouds29°C4 mph, W17%10000m1011hPa50%
17-Jun-2024 21:00Clear Sky27°C2 mph, NW0%10000m1011hPa57%
18-Jun-2024 00:00Clear Sky26°C4 mph, SW0%10000m1011hPa61%